createdAt,value
2023-02-15T00:02:08.645Z,27.98
2023-02-15T00:04:46.339Z,30.48
2023-02-15T00:07:06.036Z,27.33
2023-02-15T00:09:25.601Z,27.65
2023-02-15T00:11:54.442Z,25.02
2023-02-15T00:14:20.681Z,32.38
2023-02-15T00:16:43.346Z,30.95
2023-02-15T00:19:04.173Z,30.58
2023-02-15T00:21:24.233Z,36.50
2023-02-15T00:23:44.472Z,51.78
2023-02-15T00:26:11.764Z,49.63
2023-02-15T00:28:31.658Z,50.35
2023-02-15T00:30:51.314Z,53.33
2023-02-15T00:33:11.352Z,51.53
2023-02-15T00:35:31.399Z,54.35
2023-02-15T00:37:52.728Z,43.97
2023-02-15T00:40:12.676Z,34.58
2023-02-15T00:42:32.438Z,33.70
2023-02-15T00:44:52.018Z,42.42
2023-02-15T00:47:12.116Z,44.70
2023-02-15T00:49:32.382Z,49.22
2023-02-15T00:51:52.539Z,47.35
2023-02-15T00:54:12.221Z,46.92
2023-02-15T00:56:32.499Z,45.88
2023-02-15T00:58:52.725Z,46.72
2023-02-15T01:01:15.752Z,48.90
2023-02-15T01:05:55.578Z,35.35
2023-02-15T01:08:16.364Z,29.45
2023-02-15T01:10:36.769Z,30.17
2023-02-15T01:12:57.685Z,29.70
2023-02-15T01:15:17.873Z,26.92
2023-02-15T01:17:37.553Z,23.80
2023-02-15T01:19:57.277Z,29.38
2023-02-15T01:22:18.708Z,27.63
2023-02-15T01:24:38.631Z,32.63
2023-02-15T01:26:59.816Z,35.58
2023-02-15T01:29:19.728Z,40.78
2023-02-15T01:31:40.060Z,37.42
2023-02-15T01:34:00.426Z,35.85
2023-02-15T01:36:20.662Z,36.80
2023-02-15T01:38:40.642Z,42.92
2023-02-15T01:41:19.095Z,48.35
2023-02-15T01:43:43.658Z,50.58
2023-02-15T01:46:03.988Z,47.63
2023-02-15T01:48:28.204Z,48.28
2023-02-15T01:50:54.945Z,46.78
2023-02-15T01:53:38.841Z,42.80
2023-02-15T01:56:06.640Z,41.95
2023-02-15T01:58:29.420Z,40.10
2023-02-15T02:00:49.511Z,39.60
2023-02-15T02:03:09.668Z,42.83
2023-02-15T02:05:30.268Z,43.50
2023-02-15T02:07:53.481Z,40.03
2023-02-15T02:10:16.951Z,41.90
2023-02-15T02:12:40.756Z,45.25
2023-02-15T02:15:01.394Z,41.25
2023-02-15T02:17:42.660Z,42.45
2023-02-15T02:20:27.330Z,39.00
2023-02-15T02:23:09.011Z,39.25
2023-02-15T02:25:46.574Z,43.55
2023-02-15T02:28:21.831Z,41.45
2023-02-15T02:31:00.752Z,44.17
2023-02-15T02:33:48.478Z,40.90
2023-02-15T02:36:24.917Z,36.17
2023-02-15T02:38:44.644Z,30.88
2023-02-15T02:41:31.856Z,32.35
2023-02-15T02:44:03.034Z,35.22
2023-02-15T02:46:33.333Z,40.17
2023-02-15T02:48:53.760Z,42.60
2023-02-15T02:51:22.758Z,41.65
2023-02-15T02:53:42.845Z,46.85
2023-02-15T02:56:21.634Z,51.05
2023-02-15T02:58:48.558Z,51.13
2023-02-15T03:01:36.891Z,49.35
2023-02-15T03:04:20.037Z,50.00
2023-02-15T03:06:53.011Z,53.42
2023-02-15T03:09:18.354Z,50.67
2023-02-15T03:11:38.054Z,50.85
2023-02-15T03:13:58.617Z,46.85
2023-02-15T03:16:26.147Z,46.20
2023-02-15T03:18:53.057Z,47.85
2023-02-15T03:21:22.371Z,44.25
2023-02-15T03:23:42.383Z,48.00
2023-02-15T03:26:08.123Z,47.95
2023-02-15T03:28:46.077Z,48.83
2023-02-15T03:31:08.938Z,49.70
2023-02-15T03:33:29.922Z,50.78
2023-02-15T03:35:58.004Z,45.42
2023-02-15T03:38:25.989Z,46.83
2023-02-15T03:41:06.371Z,40.53
2023-02-15T03:43:57.305Z,40.72
2023-02-15T03:46:17.168Z,40.90
2023-02-15T03:48:42.777Z,43.60
2023-02-15T03:51:27.002Z,47.75
2023-02-15T03:53:48.833Z,51.92
2023-02-15T03:56:08.886Z,50.13
2023-02-15T03:58:47.423Z,51.00
2023-02-15T04:01:50.661Z,49.17
2023-02-15T04:04:19.844Z,51.38
2023-02-15T04:06:39.802Z,52.40
2023-02-15T04:09:18.720Z,48.65
2023-02-15T04:11:38.716Z,49.83
2023-02-15T04:13:58.908Z,48.70
2023-02-15T04:16:19.109Z,45.33
2023-02-15T04:19:02.094Z,41.22
2023-02-15T04:21:42.208Z,45.13
2023-02-15T04:24:20.378Z,45.38
2023-02-15T04:26:40.092Z,41.30
2023-02-15T04:28:59.916Z,44.15
2023-02-15T04:31:19.768Z,45.05
2023-02-15T04:33:40.017Z,49.00
2023-02-15T04:36:00.802Z,48.78
2023-02-15T04:38:22.720Z,50.95
2023-02-15T04:40:42.735Z,50.85
2023-02-15T04:43:02.439Z,50.13
2023-02-15T04:45:25.028Z,46.83
2023-02-15T04:47:45.773Z,47.97
2023-02-15T04:50:06.485Z,45.03
2023-02-15T04:52:26.154Z,42.45
2023-02-15T04:54:46.157Z,37.67
2023-02-15T04:57:06.630Z,37.55
2023-02-15T04:59:26.344Z,39.83
2023-02-15T05:01:46.754Z,39.70
2023-02-15T05:04:06.832Z,49.83
2023-02-15T05:06:27.068Z,45.78
2023-02-15T05:08:47.372Z,49.40
2023-02-15T05:11:07.078Z,47.78
2023-02-15T05:13:27.444Z,50.20
2023-02-15T05:15:49.318Z,49.80
2023-02-15T05:18:09.379Z,48.47
2023-02-15T05:20:29.452Z,51.10
2023-02-15T05:22:49.509Z,49.78
2023-02-15T05:25:28.108Z,54.70
2023-02-15T05:28:06.693Z,51.92
2023-02-15T05:30:26.971Z,52.55
2023-02-15T05:32:47.129Z,50.22
2023-02-15T05:35:07.901Z,46.55
2023-02-15T05:37:28.196Z,45.25
2023-02-15T05:39:51.184Z,46.13
2023-02-15T05:44:31.040Z,51.95
2023-02-15T05:46:50.694Z,49.75
2023-02-15T05:49:10.509Z,50.25
2023-02-15T05:51:30.372Z,48.83
2023-02-15T05:53:50.532Z,54.60
2023-02-15T05:56:11.248Z,52.67
2023-02-15T05:58:35.192Z,50.70
2023-02-15T06:00:55.733Z,53.65
2023-02-15T06:03:15.477Z,50.30
2023-02-15T06:05:35.483Z,48.00
2023-02-15T06:07:55.208Z,49.20
2023-02-15T06:10:14.963Z,46.25
2023-02-15T06:12:35.270Z,45.95
2023-02-15T06:14:54.952Z,43.58
2023-02-15T06:17:15.240Z,47.42
2023-02-15T06:19:34.959Z,50.25
2023-02-15T06:21:54.563Z,51.08
2023-02-15T06:24:13.927Z,52.40
2023-02-15T06:26:33.594Z,47.83
2023-02-15T06:28:53.133Z,47.65
2023-02-15T06:31:12.832Z,39.55
2023-02-15T06:33:34.301Z,39.80
2023-02-15T06:35:54.060Z,42.97
2023-02-15T06:38:13.873Z,37.38
2023-02-15T06:40:33.890Z,41.63
2023-02-15T06:42:53.798Z,54.88
2023-02-15T06:45:14.715Z,57.20
2023-02-15T06:47:34.561Z,53.75
2023-02-15T06:49:54.756Z,50.75
2023-02-15T06:52:14.922Z,50.25
2023-02-15T06:54:35.130Z,54.13
2023-02-15T06:56:54.967Z,47.75
2023-02-15T06:59:14.868Z,51.55
2023-02-15T07:01:34.770Z,45.83
2023-02-15T07:03:54.858Z,47.03
2023-02-15T07:06:14.782Z,44.15
2023-02-15T07:08:35.994Z,43.60
2023-02-15T07:11:19.504Z,42.55
2023-02-15T07:15:59.878Z,52.03
2023-02-15T07:18:19.970Z,45.88
2023-02-15T07:20:41.970Z,47.58
2023-02-15T07:23:02.184Z,46.80
2023-02-15T07:25:22.124Z,46.05
2023-02-15T07:27:43.485Z,46.00
2023-02-15T07:30:04.786Z,44.80
2023-02-15T07:32:27.243Z,50.25
2023-02-15T07:34:46.922Z,47.78
2023-02-15T07:37:06.529Z,46.58
2023-02-15T07:39:26.220Z,47.88
2023-02-15T07:41:46.295Z,51.97
2023-02-15T07:44:11.413Z,103.95
2023-02-15T07:46:31.436Z,59.22
2023-02-15T07:48:51.381Z,40.67
2023-02-15T07:51:12.669Z,45.72
2023-02-15T07:53:33.197Z,40.25
2023-02-15T07:55:53.232Z,26.15
2023-02-15T07:58:13.114Z,23.73
2023-02-15T08:00:53.077Z,19.05
2023-02-15T08:03:15.486Z,13.35
2023-02-15T08:05:35.243Z,14.80
2023-02-15T08:07:55.379Z,14.38
2023-02-15T08:10:35.339Z,13.25
2023-02-15T08:12:55.207Z,15.70
2023-02-15T08:15:14.962Z,13.27
2023-02-15T08:17:37.516Z,11.75
2023-02-15T08:19:57.524Z,11.20
2023-02-15T08:22:17.669Z,10.32
2023-02-15T08:24:38.082Z,10.30
2023-02-15T08:26:58.995Z,18.55
2023-02-15T08:29:22.757Z,14.15
2023-02-15T08:34:02.833Z,19.48
2023-02-15T08:36:29.688Z,32.13
2023-02-15T08:38:50.133Z,28.23
2023-02-15T08:41:19.309Z,31.05
2023-02-15T08:43:39.503Z,33.35
2023-02-15T08:45:59.748Z,29.45
2023-02-15T08:48:19.927Z,25.63
2023-02-15T08:50:39.911Z,21.10
2023-02-15T08:52:59.818Z,23.83
2023-02-15T08:55:19.635Z,29.52
2023-02-15T08:57:45.211Z,24.35
2023-02-15T09:00:05.780Z,22.35
2023-02-15T09:02:26.948Z,24.85
2023-02-15T09:04:47.248Z,17.40
2023-02-15T09:07:08.765Z,10.73
2023-02-15T09:09:28.561Z,11.10
2023-02-15T09:11:58.799Z,9.57
2023-02-15T09:14:21.922Z,8.57
2023-02-15T09:16:48.905Z,7.95
2023-02-15T09:19:08.879Z,6.43
2023-02-15T09:21:29.536Z,6.03
2023-02-15T09:23:51.079Z,7.03
2023-02-15T09:26:13.777Z,13.65
2023-02-15T09:28:34.299Z,8.48
2023-02-15T09:30:54.060Z,8.82
2023-02-15T09:33:14.140Z,9.15
2023-02-15T09:35:51.465Z,11.38
2023-02-15T09:38:12.407Z,10.43
2023-02-15T09:40:43.546Z,15.73
2023-02-15T09:43:21.186Z,10.77
2023-02-15T09:46:10.188Z,12.15
2023-02-15T09:48:58.449Z,13.32
2023-02-15T09:52:39.003Z,12.02
2023-02-15T09:55:50.086Z,17.05
2023-02-15T09:58:50.194Z,25.60
2023-02-15T10:01:48.965Z,20.45
2023-02-15T10:05:27.226Z,19.27
2023-02-15T10:08:03.821Z,16.75
2023-02-15T10:10:35.565Z,21.35
2023-02-15T10:13:10.007Z,20.70
2023-02-15T10:15:50.042Z,20.65
2023-02-15T10:18:39.348Z,33.55
2023-02-15T10:21:38.166Z,18.75
2023-02-15T10:24:18.444Z,16.35
2023-02-15T10:26:48.594Z,17.02
2023-02-15T10:29:09.975Z,14.95
2023-02-15T10:31:57.271Z,4.70
2023-02-15T10:34:20.332Z,5.20
2023-02-15T10:39:50.873Z,4.43
2023-02-15T10:42:16.209Z,3.90
2023-02-15T10:44:50.551Z,3.50
2023-02-15T10:47:13.100Z,3.88
2023-02-15T10:49:51.428Z,3.30
2023-02-15T10:52:50.574Z,3.72
2023-02-15T10:55:25.996Z,3.10
2023-02-15T10:58:13.949Z,3.20
2023-02-15T11:00:46.176Z,3.20
2023-02-15T11:03:40.408Z,3.97
2023-02-15T11:06:13.754Z,4.45
2023-02-15T11:11:02.423Z,3.05
2023-02-15T11:13:28.687Z,3.88
2023-02-15T11:16:17.657Z,3.65
2023-02-15T11:19:00.172Z,3.60
2023-02-15T11:21:24.757Z,3.88
2023-02-15T11:23:46.708Z,3.55
2023-02-15T11:26:28.845Z,3.83
2023-02-15T11:29:17.872Z,4.85
2023-02-15T11:31:53.783Z,2.85
2023-02-15T11:34:22.166Z,2.70
2023-02-15T11:36:43.836Z,2.10
2023-02-15T11:39:14.673Z,2.05
2023-02-15T11:41:41.146Z,1.92
2023-02-15T11:44:06.220Z,1.98
2023-02-15T11:46:26.351Z,1.52
2023-02-15T11:48:46.614Z,2.00
2023-02-15T11:51:11.380Z,1.50
2023-02-15T11:53:38.122Z,1.30
2023-02-15T11:55:58.180Z,1.50
2023-02-15T11:58:23.639Z,1.10
2023-02-15T12:00:47.034Z,1.30
2023-02-15T12:03:30.168Z,1.20
2023-02-15T12:06:01.906Z,1.70
2023-02-15T12:08:22.946Z,1.80
2023-02-15T12:11:15.697Z,1.50
2023-02-15T12:13:35.886Z,1.88
2023-02-15T12:15:58.068Z,1.73
2023-02-15T12:18:38.339Z,1.60
2023-02-15T12:21:10.760Z,1.90
2023-02-15T12:23:32.963Z,1.33
2023-02-15T12:25:56.230Z,1.42
2023-02-15T12:28:36.334Z,1.38
2023-02-15T12:31:06.177Z,1.30
2023-02-15T12:33:54.875Z,1.75
2023-02-15T12:36:22.932Z,1.98
2023-02-15T12:38:42.739Z,1.77
2023-02-15T12:41:05.765Z,1.75
2023-02-15T12:45:46.292Z,1.92
2023-02-15T12:48:14.589Z,1.70
2023-02-15T12:50:34.875Z,1.63
2023-02-15T12:53:08.276Z,1.50
2023-02-15T12:55:31.106Z,1.70
2023-02-15T13:00:28.962Z,1.58
2023-02-15T13:02:52.584Z,1.60
2023-02-15T13:05:49.492Z,1.42
2023-02-15T13:08:11.491Z,1.77
2023-02-15T13:10:41.799Z,1.70
2023-02-15T13:13:03.230Z,2.10
2023-02-15T13:15:37.394Z,1.88
2023-02-15T13:17:59.303Z,2.65
2023-02-15T13:20:27.505Z,2.35
2023-02-15T13:22:49.384Z,3.00
2023-02-15T13:25:21.278Z,1.55
2023-02-15T13:27:44.170Z,1.65
2023-02-15T13:32:41.395Z,1.60
2023-02-15T13:35:04.855Z,1.83
2023-02-15T13:37:52.774Z,2.08
2023-02-15T13:40:45.150Z,1.73
2023-02-15T13:43:27.621Z,2.50
2023-02-15T13:46:05.108Z,1.90
2023-02-15T13:49:01.208Z,1.83
2023-02-15T13:51:36.518Z,1.48
2023-02-15T13:54:14.921Z,1.38
2023-02-15T13:56:49.827Z,1.63
2023-02-15T13:59:28.369Z,1.92
2023-02-15T14:01:58.871Z,2.25
2023-02-15T14:05:12.935Z,1.55
2023-02-15T14:08:13.937Z,1.45
2023-02-15T14:10:45.639Z,1.40
2023-02-15T14:13:17.570Z,1.45
2023-02-15T14:15:54.266Z,1.50
2023-02-15T14:18:41.720Z,1.60
2023-02-15T14:21:40.453Z,1.40
2023-02-15T14:24:09.260Z,1.70
2023-02-15T14:26:37.224Z,1.85
2023-02-15T14:29:06.805Z,3.15
2023-02-15T14:31:34.685Z,2.42
2023-02-15T14:33:57.763Z,1.70
2023-02-15T14:36:20.454Z,2.55
2023-02-15T14:38:40.103Z,2.97
2023-02-15T14:41:07.717Z,2.65
2023-02-15T14:44:07.602Z,2.72
2023-02-15T14:46:36.755Z,2.13
2023-02-15T14:49:27.747Z,3.55
2023-02-15T14:51:47.563Z,2.58
2023-02-15T14:54:33.582Z,3.33
2023-02-15T14:57:02.432Z,4.53
2023-02-15T14:59:24.041Z,2.85
2023-02-15T15:01:58.998Z,2.67
2023-02-15T15:04:40.070Z,3.58
2023-02-15T15:07:14.877Z,3.15
2023-02-15T15:09:38.071Z,3.90
2023-02-15T15:12:22.521Z,2.97
2023-02-15T15:14:44.464Z,3.42
2023-02-15T15:17:06.820Z,2.92
2023-02-15T15:19:57.540Z,2.97
2023-02-15T15:22:19.829Z,4.45
2023-02-15T15:24:40.066Z,3.53
2023-02-15T15:27:37.324Z,3.45
2023-02-15T15:29:57.353Z,3.25
2023-02-15T15:32:23.529Z,3.53
2023-02-15T15:35:18.408Z,3.92
2023-02-15T15:37:41.348Z,4.30
2023-02-15T15:42:46.103Z,4.47
2023-02-15T15:45:38.953Z,4.80
2023-02-15T15:48:22.656Z,5.90
2023-02-15T15:50:43.351Z,5.47
2023-02-15T15:53:04.487Z,5.85
2023-02-15T15:55:27.474Z,5.78
2023-02-15T15:57:51.699Z,5.30
2023-02-15T16:00:44.888Z,5.78
2023-02-15T16:03:04.891Z,6.07
2023-02-15T16:05:24.684Z,6.35
2023-02-15T16:07:44.701Z,6.45
2023-02-15T16:10:20.476Z,8.27
2023-02-15T16:12:40.538Z,7.70
2023-02-15T16:15:23.894Z,7.22
2023-02-15T16:17:46.398Z,14.50
2023-02-15T16:20:18.873Z,9.90
2023-02-15T16:22:39.339Z,9.43
2023-02-15T16:25:01.938Z,8.43
2023-02-15T16:27:38.030Z,9.00
2023-02-15T16:29:58.080Z,9.82
2023-02-15T16:32:19.361Z,9.98
2023-02-15T16:34:39.041Z,8.15
2023-02-15T16:37:19.332Z,6.82
2023-02-15T16:39:43.008Z,8.63
2023-02-15T16:42:04.581Z,8.18
2023-02-15T16:44:24.373Z,6.70
2023-02-15T16:46:51.710Z,9.95
2023-02-15T16:49:26.660Z,12.82
2023-02-15T16:52:00.004Z,13.40
2023-02-15T16:56:46.449Z,13.52
2023-02-15T16:59:06.457Z,18.90
2023-02-15T17:01:32.751Z,13.38
2023-02-15T17:04:26.350Z,16.17
2023-02-15T17:07:04.012Z,15.27
2023-02-15T17:09:25.749Z,11.43
2023-02-15T17:11:45.603Z,5.65
2023-02-15T17:14:11.579Z,4.47
2023-02-15T17:16:33.872Z,3.67
2023-02-15T17:18:58.632Z,9.82
2023-02-15T17:21:21.108Z,12.20
2023-02-15T17:23:44.404Z,32.40
2023-02-15T17:28:32.433Z,54.20
2023-02-15T17:30:54.973Z,75.47
2023-02-15T17:33:36.017Z,37.38
2023-02-15T17:36:06.802Z,55.05
2023-02-15T17:38:26.371Z,22.17
2023-02-15T17:40:46.167Z,22.17
2023-02-15T17:43:06.179Z,15.77
2023-02-15T17:45:47.099Z,10.88
2023-02-15T17:48:17.297Z,10.48
2023-02-15T17:50:36.882Z,15.82
2023-02-15T17:52:58.754Z,25.73
2023-02-15T17:55:39.428Z,17.27
2023-02-15T17:58:03.199Z,9.35
2023-02-15T18:00:41.946Z,10.75
2023-02-15T18:03:20.143Z,12.40
2023-02-15T18:05:58.333Z,12.70
2023-02-15T18:08:41.269Z,10.40
2023-02-15T18:11:20.389Z,11.43
2023-02-15T18:13:40.458Z,14.30
2023-02-15T18:16:00.204Z,14.60
2023-02-15T18:18:20.960Z,19.58
2023-02-15T18:20:42.848Z,18.08
2023-02-15T18:23:02.992Z,17.50
2023-02-15T18:25:25.037Z,16.90
2023-02-15T18:27:45.588Z,10.93
2023-02-15T18:30:07.928Z,14.20
2023-02-15T18:32:37.468Z,14.68
2023-02-15T18:34:58.535Z,18.65
2023-02-15T18:37:20.758Z,21.17
2023-02-15T18:39:45.018Z,20.77
2023-02-15T18:42:05.630Z,25.27
2023-02-15T18:44:26.163Z,21.48
2023-02-15T18:46:45.986Z,37.00
2023-02-15T18:49:06.160Z,33.60
2023-02-15T18:51:25.952Z,25.80
2023-02-15T18:53:48.193Z,25.65
2023-02-15T18:56:16.883Z,29.50
2023-02-15T18:58:36.610Z,18.55
2023-02-15T19:00:58.222Z,13.18
2023-02-15T19:03:18.373Z,17.67
2023-02-15T19:05:40.040Z,14.23
2023-02-15T19:08:01.210Z,19.00
2023-02-15T19:10:24.172Z,17.33
2023-02-15T19:12:45.009Z,15.65
2023-02-15T19:15:05.727Z,15.25
2023-02-15T19:17:25.658Z,18.30
2023-02-15T19:19:46.514Z,16.50
2023-02-15T19:22:08.886Z,23.98
2023-02-15T19:24:37.686Z,41.40
2023-02-15T19:26:57.768Z,39.40
2023-02-15T19:29:25.524Z,28.92
2023-02-15T19:31:45.694Z,35.78
2023-02-15T19:34:14.834Z,20.85
2023-02-15T19:36:34.788Z,17.60
2023-02-15T19:38:55.304Z,18.30
2023-02-15T19:41:30.048Z,14.15
2023-02-15T19:43:54.539Z,23.30
2023-02-15T19:46:18.385Z,13.18
2023-02-15T19:48:38.372Z,12.85
2023-02-15T19:50:58.072Z,17.15
2023-02-15T19:53:22.130Z,32.10
2023-02-15T19:55:42.218Z,58.45
2023-02-15T19:58:02.210Z,37.72
2023-02-15T20:00:26.667Z,20.42
2023-02-15T20:02:46.966Z,15.55
2023-02-15T20:05:07.349Z,13.15
2023-02-15T20:07:28.356Z,13.60
2023-02-15T20:09:48.550Z,20.55
2023-02-15T20:12:28.943Z,29.08
2023-02-15T20:14:51.550Z,24.58
2023-02-15T20:17:11.433Z,45.67
2023-02-15T20:19:31.156Z,40.75
2023-02-15T20:21:53.898Z,35.80
2023-02-15T20:24:17.267Z,38.25
2023-02-15T20:26:37.139Z,36.55
2023-02-15T20:28:57.230Z,37.13
2023-02-15T20:31:19.817Z,25.65
2023-02-15T20:33:39.716Z,25.88
2023-02-15T20:36:00.047Z,23.15
2023-02-15T20:38:24.110Z,20.67
2023-02-15T20:41:04.074Z,22.33
2023-02-15T20:43:24.078Z,19.05
2023-02-15T20:45:43.808Z,26.80
2023-02-15T20:48:04.580Z,80.85
2023-02-15T20:50:28.496Z,69.45
2023-02-15T20:52:50.772Z,46.10
2023-02-15T20:55:13.971Z,35.28
2023-02-15T20:57:33.963Z,24.25
2023-02-15T20:59:53.617Z,24.25
2023-02-15T21:02:23.171Z,20.60
2023-02-15T21:04:43.145Z,24.58
2023-02-15T21:07:03.216Z,35.97
2023-02-15T21:09:23.374Z,34.95
2023-02-15T21:11:44.325Z,53.83
2023-02-15T21:14:04.312Z,53.83
2023-02-15T21:16:23.943Z,40.50
2023-02-15T21:18:44.155Z,60.88
2023-02-15T21:21:06.066Z,40.60
2023-02-15T21:23:35.643Z,88.25
2023-02-15T21:25:56.705Z,83.88
2023-02-15T21:28:19.680Z,52.47
2023-02-15T21:32:59.451Z,45.00
2023-02-15T21:35:20.700Z,47.53
2023-02-15T21:37:42.226Z,45.90
2023-02-15T21:40:05.152Z,49.00
2023-02-15T21:42:43.546Z,47.05
2023-02-15T21:45:35.064Z,33.70
2023-02-15T21:47:55.032Z,22.90
2023-02-15T21:50:41.742Z,45.47
2023-02-15T21:53:03.635Z,44.92
2023-02-15T21:55:23.913Z,26.88
2023-02-15T21:57:44.474Z,51.40
2023-02-15T22:00:04.579Z,87.65
2023-02-15T22:02:27.780Z,58.05
2023-02-15T22:04:47.483Z,36.53
2023-02-15T22:07:17.620Z,18.15
2023-02-15T22:09:37.641Z,23.10
2023-02-15T22:11:58.096Z,34.13
2023-02-15T22:14:33.202Z,48.95
2023-02-15T22:16:52.911Z,50.58
2023-02-15T22:19:12.660Z,35.60
2023-02-15T22:21:32.717Z,44.80
2023-02-15T22:23:52.793Z,44.00
2023-02-15T22:26:23.711Z,42.38
2023-02-15T22:28:43.983Z,69.78
2023-02-15T22:31:09.950Z,65.72
2023-02-15T22:33:32.281Z,52.80
2023-02-15T22:35:52.131Z,42.42
2023-02-15T22:38:12.285Z,43.60
2023-02-15T22:40:33.456Z,43.97
2023-02-15T22:42:54.533Z,47.05
2023-02-15T22:45:20.832Z,42.30
2023-02-15T22:47:40.525Z,35.95
2023-02-15T22:50:00.508Z,36.80
2023-02-15T22:52:20.712Z,37.70
2023-02-15T22:54:40.628Z,43.05
2023-02-15T22:57:00.815Z,50.42
2023-02-15T22:59:33.327Z,40.22
2023-02-15T23:01:53.740Z,39.15
2023-02-15T23:04:20.751Z,40.47
2023-02-15T23:06:41.467Z,44.65
2023-02-15T23:09:01.729Z,44.95
2023-02-15T23:11:21.970Z,40.15
2023-02-15T23:13:41.745Z,38.72
2023-02-15T23:16:03.273Z,41.78
2023-02-15T23:18:31.091Z,42.97
2023-02-15T23:20:56.612Z,45.30
2023-02-15T23:23:17.248Z,41.60
2023-02-15T23:25:37.442Z,30.27
2023-02-15T23:27:57.454Z,33.78
2023-02-15T23:30:17.841Z,25.60
2023-02-15T23:32:37.941Z,24.45
2023-02-15T23:34:58.291Z,28.90
2023-02-15T23:37:18.178Z,35.95
2023-02-15T23:39:56.718Z,35.03
2023-02-15T23:42:25.390Z,35.83
2023-02-15T23:44:46.160Z,38.53
2023-02-15T23:47:16.724Z,35.97
2023-02-15T23:49:37.267Z,29.13
2023-02-15T23:51:57.692Z,24.55
2023-02-15T23:54:19.611Z,24.25
2023-02-15T23:56:41.060Z,25.57
2023-02-15T23:59:01.038Z,18.65
